Time;durP1;ratioP1;P1;durP2;ratioP2;P2;SDS_P1;SDS_P2;PMS_P1;PMS_P2;Temp;Humidity;BMP_temperature;BMP_pressure;BME280_temperature;BME280_humidity;BME280_pressure;Samples;Min_cycle;Max_cycle;Signal;HPM_P1;HPM_P2
2023/10/04 00:00:14;;;;;;;43.95;36.80;;;36.80;99.90;;;;;;5002881;28;20539;-62
2023/10/04 00:02:43;;;;;;;28.23;24.52;;;36.80;99.90;;;;;;5004806;28;20017;-61
2023/10/04 00:05:10;;;;;;;51.97;42.63;;;36.80;99.90;;;;;;5020629;28;20034;-62
2023/10/04 00:07:36;;;;;;;48.75;41.13;;;36.70;99.90;;;;;;5005920;28;20019;-62
2023/10/04 00:10:04;;;;;;;39.00;31.92;;;36.70;99.90;;;;;;5005018;28;20026;-62
2023/10/04 00:12:30;;;;;;;30.92;27.25;;;36.80;99.90;;;;;;5011914;28;20026;-62
2023/10/04 00:14:56;;;;;;;24.55;21.88;;;36.70;99.90;;;;;;5015564;28;20559;-62
2023/10/04 00:17:22;;;;;;;21.95;19.75;;;36.70;99.90;;;;;;5015412;28;20022;-62
2023/10/04 00:19:48;;;;;;;33.15;29.40;;;36.70;99.90;;;;;;4995458;28;20053;-62
2023/10/04 00:22:13;;;;;;;41.03;32.25;;;36.80;99.90;;;;;;5011504;28;20063;-62
2023/10/04 00:24:39;;;;;;;53.25;40.38;;;36.70;99.90;;;;;;5021808;28;20030;-62
2023/10/04 00:27:05;;;;;;;36.88;31.27;;;36.70;99.90;;;;;;5026944;28;20060;-62
2023/10/04 00:29:30;;;;;;;32.15;25.00;;;36.70;99.90;;;;;;5004876;28;20038;-62
2023/10/04 00:31:56;;;;;;;23.23;20.77;;;36.60;99.90;;;;;;5016946;28;20022;-62
2023/10/04 00:34:22;;;;;;;34.58;27.05;;;36.70;99.90;;;;;;5017697;28;20049;-62
2023/10/04 00:36:48;;;;;;;27.77;21.58;;;36.60;99.90;;;;;;5014963;28;20029;-62
2023/10/04 00:39:14;;;;;;;23.63;19.92;;;36.70;99.90;;;;;;5008955;28;20498;-62
2023/10/04 00:41:40;;;;;;;31.45;26.02;;;36.70;99.90;;;;;;5023341;28;20044;-62
2023/10/04 00:44:07;;;;;;;22.70;20.08;;;36.70;99.90;;;;;;5025161;28;20115;-62
2023/10/04 00:46:35;;;;;;;27.77;23.60;;;36.70;99.90;;;;;;5019570;28;20028;-62
2023/10/04 00:49:03;;;;;;;35.22;29.92;;;36.70;99.90;;;;;;5013537;28;20029;-62
2023/10/04 00:51:35;;;;;;;43.50;32.88;;;36.60;99.90;;;;;;5011825;28;20098;-62
2023/10/04 00:54:03;;;;;;;62.45;53.67;;;;;;;;;;5034502;28;20025;-61
2023/10/04 00:56:29;;;;;;;23.15;20.38;;;;;;;;;;5015296;28;20563;-61
2023/10/04 00:58:55;;;;;;;27.00;21.92;;;;;;;;;;5030128;28;20060;-61
2023/10/04 01:01:21;;;;;;;19.17;17.15;;;;;;;;;;5015112;28;20129;-61
2023/10/04 01:03:47;;;;;;;27.23;22.20;;;;;;;;;;5014918;28;20092;-61
2023/10/04 01:06:15;;;;;;;19.88;17.83;;;;;;;;;;5015500;28;20439;-62
2023/10/04 01:08:42;;;;;;;28.05;23.08;;;;;;;;;;5030983;28;20439;-61
2023/10/04 01:11:08;;;;;;;52.15;41.75;;;;;;;;;;5024833;28;20029;-61
2023/10/04 01:13:34;;;;;;;18.38;15.70;;;;;;;;;;4989681;28;20034;-62
2023/10/04 01:16:00;;;;;;;19.80;17.38;;;;;;;;;;5001372;28;20053;-62
2023/10/04 01:18:30;;;;;;;24.30;21.20;;;;;;;;;;5004588;28;20353;-62
2023/10/04 01:20:56;;;;;;;51.80;40.83;;;;;;;;;;4992826;28;20526;-61
2023/10/04 01:23:22;;;;;;;31.52;26.08;;;;;;;;;;5021097;28;20029;-62
2023/10/04 01:25:48;;;;;;;17.15;15.05;;;;;;;;;;5023133;28;20081;-61
2023/10/04 01:28:26;;;;;;;43.95;34.88;;;;;;;;;;5003165;28;20029;-61
2023/10/04 01:30:53;;;;;;;15.27;13.23;;;;;;;;;;5008097;28;20101;-62
2023/10/04 01:33:19;;;;;;;36.80;26.95;;;;;;;;;;5022666;28;20034;-62
2023/10/04 01:35:55;;;;;;;15.25;13.43;;;;;;;;;;4994859;28;20033;-62
2023/10/04 01:38:24;;;;;;;16.52;14.70;;;;;;;;;;5005988;28;20036;-62
2023/10/04 01:40:50;;;;;;;24.88;19.77;;;;;;;;;;5014343;28;20030;-61
2023/10/04 01:43:17;;;;;;;18.30;14.25;;;;;;;;;;5016861;28;20037;-61
2023/10/04 01:45:46;;;;;;;13.82;12.52;;;;;;;;;;5010364;28;20030;-62
2023/10/04 01:48:15;;;;;;;13.05;11.75;;;;;;;;;;5014394;28;20479;-62
2023/10/04 01:50:41;;;;;;;13.43;12.15;;;;;;;;;;5011571;28;20387;-61
2023/10/04 01:53:07;;;;;;;14.10;12.15;;;;;;;;;;5018351;28;20085;-62
2023/10/04 01:55:33;;;;;;;12.95;11.77;;;;;;;;;;5016713;28;20126;-62
2023/10/04 01:57:58;;;;;;;13.07;11.77;;;36.50;99.90;;;;;;5025641;28;20041;-62
2023/10/04 02:00:28;;;;;;;13.25;12.05;;;36.50;99.90;;;;;;5032749;28;20375;-62
2023/10/04 02:02:54;;;;;;;13.55;11.20;;;36.50;99.90;;;;;;4998334;28;20033;-62
2023/10/04 02:05:24;;;;;;;14.60;13.10;;;36.50;99.90;;;;;;5017485;28;20387;-62
2023/10/04 02:07:51;;;;;;;12.75;11.55;;;36.50;99.90;;;;;;5012080;28;20053;-62
2023/10/04 02:10:17;;;;;;;12.98;11.75;;;36.50;99.90;;;;;;5027874;28;20030;-62
2023/10/04 02:12:43;;;;;;;14.50;13.02;;;36.50;99.90;;;;;;5011396;28;20038;-62
2023/10/04 02:15:14;;;;;;;16.65;12.43;;;36.50;99.90;;;;;;5012091;28;20489;-62
2023/10/04 02:17:43;;;;;;;14.10;12.40;;;36.50;99.90;;;;;;5013152;28;20432;-62
2023/10/04 02:20:13;;;;;;;13.48;12.10;;;36.50;99.90;;;;;;4999468;28;20045;-62
2023/10/04 02:22:39;;;;;;;14.35;11.95;;;36.50;99.90;;;;;;5015298;28;20408;-62
2023/10/04 02:25:06;;;;;;;14.77;13.25;;;36.50;99.90;;;;;;5017060;28;20018;-62
2023/10/04 02:27:32;;;;;;;17.58;13.43;;;36.40;99.90;;;;;;5004576;28;20105;-61
2023/10/04 02:29:58;;;;;;;15.38;13.50;;;36.50;99.90;;;;;;5014056;28;20105;-62
2023/10/04 02:32:25;;;;;;;14.57;12.90;;;36.50;99.90;;;;;;5005669;28;20110;-62
2023/10/04 02:34:52;;;;;;;16.27;13.75;;;36.50;99.90;;;;;;4993129;28;20030;-61
2023/10/04 02:37:19;;;;;;;15.18;13.23;;;36.50;99.90;;;;;;5008889;28;20021;-62
2023/10/04 02:39:45;;;;;;;15.45;13.45;;;36.50;99.90;;;;;;5031811;28;20029;-62
2023/10/04 02:42:12;;;;;;;15.65;13.88;;;36.50;99.90;;;;;;5018237;28;20383;-62
2023/10/04 02:44:37;;;;;;;16.80;15.20;;;36.50;99.90;;;;;;5008894;28;20042;-62
2023/10/04 02:47:07;;;;;;;15.43;13.90;;;36.50;99.90;;;;;;5004753;28;20040;-63
2023/10/04 02:49:35;;;;;;;17.92;15.63;;;36.50;99.90;;;;;;5014784;28;20053;-62
2023/10/04 02:52:11;;;;;;;20.35;15.82;;;36.50;99.90;;;;;;5005468;28;20034;-62
2023/10/04 02:54:38;;;;;;;18.67;15.73;;;36.50;99.90;;;;;;4993625;28;20504;-62
2023/10/04 02:57:08;;;;;;;17.20;15.60;;;36.50;99.90;;;;;;4999081;28;20105;-62
2023/10/04 02:59:35;;;;;;;20.30;16.85;;;36.40;99.90;;;;;;5027170;28;20492;-62
2023/10/04 03:02:01;;;;;;;17.83;15.63;;;36.40;99.90;;;;;;5017348;28;20029;-62
2023/10/04 03:04:27;;;;;;;18.98;16.70;;;36.50;99.90;;;;;;4994880;28;20528;-62
2023/10/04 03:06:53;;;;;;;18.52;16.65;;;36.40;99.90;;;;;;5002024;28;20026;-62
2023/10/04 03:09:19;;;;;;;20.38;17.95;;;36.40;99.90;;;;;;4997874;28;20013;-62
2023/10/04 03:11:45;;;;;;;19.17;17.17;;;36.40;99.90;;;;;;5019772;28;21363;-61
2023/10/04 03:14:12;;;;;;;18.35;16.55;;;36.50;99.90;;;;;;5008842;28;20029;-62
2023/10/04 03:16:40;;;;;;;19.15;17.27;;;36.40;99.90;;;;;;5017637;28;20026;-61
2023/10/04 03:19:07;;;;;;;18.05;16.13;;;36.50;99.90;;;;;;5008100;28;20030;-62
2023/10/04 03:21:33;;;;;;;20.08;17.88;;;36.50;99.90;;;;;;4990219;28;20046;-63
2023/10/04 03:23:59;;;;;;;19.88;16.88;;;36.50;99.90;;;;;;5017143;28;20036;-61
2023/10/04 03:26:25;;;;;;;19.73;17.52;;;36.50;99.90;;;;;;5020060;28;20026;-61
2023/10/04 03:35:39;;;;;;;19.83;17.50;;;36.40;99.90;;;;;;5008423;28;20096;-61
2023/10/04 03:38:07;;;;;;;20.85;18.58;;;36.40;99.90;;;;;;5015310;28;20037;-61
2023/10/04 03:40:37;;;;;;;19.10;17.10;;;36.40;99.90;;;;;;5004831;28;20383;-62
2023/10/04 03:43:08;;;;;;;20.45;18.27;;;36.40;99.90;;;;;;5015616;28;20491;-61
2023/10/04 03:45:35;;;;;;;22.00;18.02;;;36.50;99.90;;;;;;5011829;28;20030;-61
2023/10/04 03:48:01;;;;;;;20.05;18.08;;;36.40;99.90;;;;;;4991755;28;20456;-61
2023/10/04 03:50:30;;;;;;;21.42;19.23;;;36.50;99.90;;;;;;5006551;28;20093;-61
2023/10/04 03:52:57;;;;;;;23.55;19.90;;;36.50;99.90;;;;;;5012174;28;20110;-61
2023/10/04 03:55:25;;;;;;;21.85;18.25;;;36.40;99.90;;;;;;5010165;28;20057;-61
2023/10/04 03:57:51;;;;;;;21.95;19.73;;;36.40;99.90;;;;;;4999435;28;20026;-62
2023/10/04 04:00:17;;;;;;;21.50;19.30;;;36.40;99.90;;;;;;5010373;28;20041;-62
2023/10/04 04:02:44;;;;;;;24.05;20.52;;;36.30;99.90;;;;;;4993902;28;20030;-62
2023/10/04 04:05:21;;;;;;;22.27;19.70;;;36.40;99.90;;;;;;5008156;28;20507;-62
2023/10/04 04:07:50;;;;;;;22.77;20.48;;;36.40;99.90;;;;;;5013809;28;20045;-62
2023/10/04 04:10:19;;;;;;;22.02;19.40;;;36.40;99.90;;;;;;5026404;28;20392;-62
2023/10/04 04:12:46;;;;;;;21.60;18.90;;;36.40;99.90;;;;;;5019060;28;20037;-62
2023/10/04 04:15:12;;;;;;;22.80;20.50;;;36.30;99.90;;;;;;5002615;28;20061;-62
2023/10/04 04:17:41;;;;;;;22.20;20.02;;;36.30;99.90;;;;;;5012030;28;20034;-62
2023/10/04 04:20:16;;;;;;;23.75;21.27;;;36.30;99.90;;;;;;5027557;28;20473;-61
2023/10/04 04:22:50;;;;;;;23.35;19.25;;;36.40;99.90;;;;;;5015179;28;20025;-61
2023/10/04 04:25:19;;;;;;;22.10;19.52;;;36.40;99.90;;;;;;5017031;28;20076;-61
2023/10/04 04:27:50;;;;;;;21.58;19.48;;;36.30;99.90;;;;;;5035118;28;20013;-62
2023/10/04 04:30:23;;;;;;;23.60;21.20;;;36.30;99.90;;;;;;5028859;28;20030;-61
2023/10/04 04:32:53;;;;;;;22.38;19.95;;;36.30;99.90;;;;;;4997052;28;20081;-61
2023/10/04 04:36:08;;;;;;;21.90;19.70;;;36.40;99.90;;;;;;5006319;28;20037;-61
2023/10/04 04:40:35;;;;;;;20.38;18.23;;;36.30;99.90;;;;;;5009988;28;20034;-62
2023/10/04 04:45:51;;;;;;;21.02;18.70;;;36.30;99.90;;;;;;5019063;28;20095;-62
2023/10/04 04:48:24;;;;;;;22.35;18.92;;;36.30;99.90;;;;;;5021877;28;20029;-61
2023/10/04 04:50:58;;;;;;;23.00;18.77;;;36.20;99.90;;;;;;5008166;28;20030;-62
2023/10/04 04:53:27;;;;;;;22.63;20.23;;;36.20;99.90;;;;;;5034932;28;20029;-62
2023/10/04 04:55:53;;;;;;;23.65;19.90;;;36.10;99.90;;;;;;5020953;28;20030;-62
2023/10/04 04:58:20;;;;;;;24.23;21.00;;;36.10;99.90;;;;;;5022348;28;20033;-62
2023/10/04 05:00:50;;;;;;;22.92;20.50;;;36.20;99.90;;;;;;5014701;28;20476;-62
2023/10/04 05:03:16;;;;;;;24.80;21.35;;;36.10;99.90;;;;;;5021853;28;20021;-62
2023/10/04 05:05:42;;;;;;;23.20;20.83;;;36.10;99.90;;;;;;5007322;28;20101;-62
2023/10/04 05:08:08;;;;;;;25.00;21.23;;;36.20;99.90;;;;;;5006531;28;20117;-62
2023/10/04 05:10:38;;;;;;;24.40;20.83;;;36.20;99.90;;;;;;5024669;28;20079;-62
2023/10/04 05:13:07;;;;;;;25.13;22.33;;;36.20;99.90;;;;;;5008958;28;20049;-61
2023/10/04 05:15:38;;;;;;;27.63;21.83;;;36.10;99.90;;;;;;5026266;28;20038;-61
2023/10/04 05:18:05;;;;;;;26.55;23.50;;;36.10;99.90;;;;;;5024705;28;20547;-61
2023/10/04 05:20:32;;;;;;;31.00;24.60;;;36.20;99.90;;;;;;5001013;28;20018;-62
2023/10/04 05:22:58;;;;;;;27.38;23.17;;;36.10;99.90;;;;;;5010244;28;20090;-62
2023/10/04 05:25:24;;;;;;;27.45;24.52;;;36.10;99.90;;;;;;5005757;28;20510;-62
2023/10/04 05:27:50;;;;;;;28.17;25.17;;;36.10;99.90;;;;;;5005424;28;20026;-61
2023/10/04 05:30:18;;;;;;;30.40;24.48;;;36.10;99.90;;;;;;5009560;28;20112;-61
2023/10/04 05:32:46;;;;;;;27.70;24.75;;;36.10;99.90;;;;;;5012241;28;20107;-61
2023/10/04 05:35:15;;;;;;;28.50;25.50;;;36.00;99.90;;;;;;5012121;28;20161;-62
2023/10/04 05:37:44;;;;;;;28.67;25.35;;;36.00;99.90;;;;;;5017550;28;20037;-62
2023/10/04 05:40:17;;;;;;;29.40;26.08;;;36.10;99.90;;;;;;5023672;28;20025;-61
2023/10/04 05:42:46;;;;;;;31.90;27.98;;;36.10;99.90;;;;;;5013223;28;20022;-61
2023/10/04 05:45:12;;;;;;;30.77;27.58;;;36.10;99.90;;;;;;4994806;28;20054;-62
2023/10/04 05:47:41;;;;;;;30.55;27.27;;;36.10;99.90;;;;;;5011526;28;20484;-61
2023/10/04 05:50:13;;;;;;;30.60;26.92;;;36.10;99.90;;;;;;5015099;28;20032;-62
2023/10/04 05:52:39;;;;;;;29.25;24.83;;;36.10;99.90;;;;;;5012422;28;20131;-62
2023/10/04 05:55:08;;;;;;;32.17;25.35;;;36.10;99.90;;;;;;5015265;28;20037;-61
2023/10/04 05:57:35;;;;;;;26.60;23.70;;;36.10;99.90;;;;;;5029956;28;20017;-61
2023/10/04 06:00:21;;;;;;;24.92;21.92;;;36.10;99.90;;;;;;5009921;28;20021;-61
2023/10/04 06:02:48;;;;;;;25.05;21.90;;;36.10;99.90;;;;;;5011897;28;20387;-62
2023/10/04 06:05:14;;;;;;;25.05;21.92;;;36.10;99.90;;;;;;5014855;28;20022;-62
2023/10/04 06:07:40;;;;;;;25.63;21.20;;;36.10;99.90;;;;;;4999547;28;20033;-61
2023/10/04 06:10:06;;;;;;;24.98;21.13;;;36.10;99.90;;;;;;4988714;28;20034;-61
2023/10/04 06:12:32;;;;;;;24.33;21.08;;;36.10;99.90;;;;;;4996004;28;20069;-62
2023/10/04 06:14:57;;;;;;;27.60;21.77;;;36.10;99.90;;;;;;5010276;28;20062;-62
2023/10/04 06:17:23;;;;;;;25.40;21.60;;;36.10;99.90;;;;;;5018786;28;20049;-63
2023/10/04 06:19:51;;;;;;;25.48;20.48;;;36.10;99.90;;;;;;5019942;28;20026;-61
2023/10/04 06:22:17;;;;;;;21.55;19.17;;;36.20;99.90;;;;;;5010394;28;20030;-61
2023/10/04 06:24:43;;;;;;;23.63;19.88;;;36.20;99.90;;;;;;5013167;28;20037;-61
2023/10/04 06:27:09;;;;;;;22.08;19.55;;;36.10;99.90;;;;;;5012030;28;20033;-61
2023/10/04 06:29:34;;;;;;;23.67;19.35;;;36.10;99.90;;;;;;5008235;28;20041;-61
2023/10/04 06:32:00;;;;;;;22.25;18.80;;;36.20;99.90;;;;;;4985204;28;20404;-61
2023/10/04 06:34:27;;;;;;;20.95;18.92;;;36.20;99.90;;;;;;5009110;28;20045;-61
2023/10/04 06:36:52;;;;;;;23.50;18.88;;;36.20;99.90;;;;;;4997207;28;20029;-61
2023/10/04 06:39:18;;;;;;;21.55;18.95;;;36.20;99.90;;;;;;4991973;28;20076;-61
2023/10/04 06:41:44;;;;;;;20.25;18.08;;;36.20;99.90;;;;;;5008672;28;20046;-61
2023/10/04 06:44:10;;;;;;;20.42;17.23;;;36.20;99.90;;;;;;5004850;28;20028;-61
2023/10/04 06:46:36;;;;;;;18.38;16.35;;;36.20;99.90;;;;;;5010389;28;20034;-61
2023/10/04 06:49:02;;;;;;;18.48;15.55;;;36.30;99.90;;;;;;4984584;28;20509;-61
2023/10/04 06:51:30;;;;;;;17.67;15.95;;;36.40;99.90;;;;;;5008343;28;20116;-61
2023/10/04 06:53:56;;;;;;;18.25;16.13;;;36.40;99.90;;;;;;5007585;28;20410;-61
2023/10/04 06:56:22;;;;;;;17.27;14.95;;;36.40;99.90;;;;;;5024888;28;20021;-61
2023/10/04 06:58:48;;;;;;;29.27;15.07;;;36.40;99.90;;;;;;5015017;28;20029;-61
2023/10/04 07:01:16;;;;;;;18.58;12.68;;;36.50;99.90;;;;;;5005285;28;20105;-66
2023/10/04 07:03:43;;;;;;;15.38;12.80;;;36.40;99.90;;;;;;5012906;28;20369;-67
2023/10/04 07:06:09;;;;;;;14.75;12.38;;;36.40;99.90;;;;;;5004176;28;20060;-64
2023/10/04 07:08:35;;;;;;;17.02;13.05;;;36.50;99.90;;;;;;5005792;28;20445;-65
2023/10/04 07:11:03;;;;;;;14.98;12.85;;;36.50;99.90;;;;;;5009130;28;20030;-66
2023/10/04 07:13:32;;;;;;;19.63;12.80;;;36.50;99.90;;;;;;5016486;28;20394;-65
2023/10/04 07:15:58;;;;;;;17.27;14.82;;;36.50;99.90;;;;;;5016461;28;20483;-66
2023/10/04 07:18:24;;;;;;;16.60;13.40;;;36.60;99.90;;;;;;4985555;28;20133;-64
2023/10/04 07:20:50;;;;;;;17.02;13.07;;;36.50;99.90;;;;;;5010655;28;20032;-61
2023/10/04 07:23:16;;;;;;;14.02;12.63;;;36.60;99.90;;;;;;5007843;28;20058;-69
2023/10/04 07:25:44;;;;;;;13.60;12.20;;;36.60;99.90;;;;;;5014595;28;20018;-68
2023/10/04 07:28:11;;;;;;;15.15;12.30;;;36.60;99.90;;;;;;4993182;28;20442;-63
2023/10/04 07:30:38;;;;;;;13.73;12.18;;;36.60;99.90;;;;;;5003425;28;20080;-54
2023/10/04 07:33:04;;;;;;;15.30;12.80;;;36.70;99.90;;;;;;5017053;28;20098;-61
2023/10/04 07:35:31;;;;;;;14.25;12.52;;;36.70;99.90;;;;;;5007960;28;20030;-59
2023/10/04 07:37:58;;;;;;;14.68;12.65;;;36.70;99.90;;;;;;5010848;28;20416;-61
2023/10/04 07:40:26;;;;;;;15.07;12.77;;;36.70;99.90;;;;;;5009410;28;20021;-61
2023/10/04 07:42:55;;;;;;;13.45;11.93;;;36.70;99.90;;;;;;5001706;28;20031;-65
2023/10/04 07:45:22;;;;;;;13.13;11.55;;;36.70;99.90;;;;;;4985562;28;20109;-67
2023/10/04 07:47:48;;;;;;;15.40;12.13;;;36.70;99.90;;;;;;4994365;28;20396;-60
2023/10/04 07:50:19;;;;;;;13.15;11.82;;;36.70;99.90;;;;;;5011265;28;20018;-67
2023/10/04 07:52:45;;;;;;;14.00;12.50;;;36.70;99.90;;;;;;5016695;28;20091;-68
2023/10/04 07:55:18;;;;;;;14.27;12.30;;;36.70;99.90;;;;;;5000236;28;20439;-68
2023/10/04 07:57:47;;;;;;;16.67;12.93;;;36.70;99.90;;;;;;5011874;28;20026;-63
2023/10/04 08:00:15;;;;;;;15.50;11.20;;;36.70;99.90;;;;;;4994282;28;20026;-67
2023/10/04 08:02:52;;;;;;;13.40;11.55;;;36.80;99.90;;;;;;5004573;28;20685;-67
2023/10/04 08:05:26;;;;;;;17.27;11.93;;;36.80;99.90;;;;;;5002806;28;20121;-68
2023/10/04 08:07:54;;;;;;;13.00;11.63;;;36.90;99.90;;;;;;5000145;28;20650;-65
2023/10/04 08:10:25;;;;;;;16.92;13.13;;;36.80;99.90;;;;;;5003932;28;20480;-67
2023/10/04 08:12:59;;;;;;;14.45;12.18;;;36.90;99.90;;;;;;4993102;28;20333;-68
2023/10/04 08:15:27;;;;;;;14.23;12.43;;;36.90;99.90;;;;;;4989595;28;20053;-59
2023/10/04 08:17:58;;;;;;;15.85;12.68;;;36.90;99.90;;;;;;5006169;28;20325;-62
2023/10/04 08:20:29;;;;;;;16.42;14.45;;;36.90;99.90;;;;;;5013528;28;20029;-61
2023/10/04 08:22:57;;;;;;;14.15;12.65;;;36.90;99.90;;;;;;5013284;28;20017;-62
2023/10/04 08:25:27;;;;;;;18.40;13.52;;;36.90;99.90;;;;;;5009651;28;20032;-65
2023/10/04 08:27:53;;;;;;;14.85;12.75;;;36.90;99.90;;;;;;4999643;28;20042;-59
2023/10/04 08:30:20;;;;;;;14.02;12.63;;;36.90;99.90;;;;;;5006439;28;20060;-59
2023/10/04 08:32:47;;;;;;;14.88;13.45;;;36.90;99.90;;;;;;4995423;28;20049;-58
2023/10/04 08:35:33;;;;;;;18.08;11.98;;;37.00;99.90;;;;;;5007546;28;20391;-59
2023/10/04 08:38:04;;;;;;;14.00;11.27;;;37.00;99.90;;;;;;5007067;28;20125;-61
2023/10/04 08:40:30;;;;;;;13.98;12.48;;;37.00;99.90;;;;;;5010467;28;20030;-62
2023/10/04 08:42:59;;;;;;;13.13;11.77;;;37.10;99.90;;;;;;5009276;28;20022;-64
2023/10/04 08:45:29;;;;;;;13.80;11.65;;;37.10;99.90;;;;;;5010427;28;20045;-64
2023/10/04 08:47:58;;;;;;;13.82;11.38;;;37.10;99.90;;;;;;4997303;28;20538;-65
2023/10/04 08:50:38;;;;;;;15.15;11.95;;;37.20;99.90;;;;;;5008680;28;20121;-64
2023/10/04 08:53:18;;;;;;;13.15;11.60;;;37.20;99.90;;;;;;5012868;28;20030;-72
2023/10/04 08:55:53;;;;;;;12.75;10.80;;;37.20;99.90;;;;;;5013957;28;20119;-65
2023/10/04 08:58:20;;;;;;;14.68;10.82;;;37.30;99.90;;;;;;5014032;28;20021;-57
2023/10/04 09:00:48;;;;;;;15.98;11.32;;;37.30;99.90;;;;;;5014479;28;20022;-61
2023/10/04 09:03:15;;;;;;;15.82;11.48;;;;;;;;;;5014200;28;20591;-60
2023/10/04 09:05:46;;;;;;;11.30;10.13;;;;;;;;;;5019942;28;20072;-59
2023/10/04 09:08:12;;;;;;;12.98;10.63;;;;;;;;;;5008706;28;20058;-62
2023/10/04 09:10:39;;;;;;;15.13;11.15;;;;;;;;;;5011739;28;20068;-59
2023/10/04 09:13:06;;;;;;;15.05;11.35;;;;;;;;;;4984419;28;20042;-59
2023/10/04 09:15:32;;;;;;;11.95;10.75;;;;;;;;;;5009576;28;20104;-56
2023/10/04 09:17:58;;;;;;;12.63;11.27;;;;;;;;;;5005132;28;20026;-59
2023/10/04 09:20:35;;;;;;;12.93;11.60;;;;;;;;;;5003592;28;20030;-61
2023/10/04 09:23:02;;;;;;;14.10;12.70;;;;;;;;;;5010898;28;20527;-57
2023/10/04 09:25:38;;;;;;;13.77;11.90;;;;;;;;;;5014426;28;20049;-60
2023/10/04 09:28:04;;;;;;;13.02;11.63;;;;;;;;;;5013519;28;20025;-57
2023/10/04 09:30:36;;;;;;;15.38;12.95;;;;;;;;;;5010860;28;20407;-60
2023/10/04 09:33:05;;;;;;;13.10;10.45;;;;;;;;;;5031355;28;20061;-63
2023/10/04 09:35:51;;;;;;;16.27;10.57;;;;;;;;;;5021545;28;20140;-61
2023/10/04 09:38:21;;;;;;;15.20;10.77;;;;;;;;;;5032450;28;20014;-62
2023/10/04 09:40:50;;;;;;;11.68;9.82;;;;;;;;;;5021235;28;20062;-61
2023/10/04 09:43:16;;;;;;;10.13;9.15;;;;;;;;;;5025490;28;20061;-61
2023/10/04 09:45:56;;;;;;;12.00;10.82;;;;;;;;;;5022416;28;20517;-61
2023/10/04 09:48:23;;;;;;;12.45;10.57;;;;;;;;;;5027510;28;20025;-53
2023/10/04 09:50:50;;;;;;;11.20;10.10;;;;;;;;;;5012159;28;20107;-57
2023/10/04 09:53:16;;;;;;;9.75;8.77;;;;;;;;;;5020973;28;20066;-54
2023/10/04 09:55:43;;;;;;;14.90;10.70;;;;;;;;;;4991677;28;20042;-57
2023/10/04 09:58:13;;;;;;;15.02;10.23;;;;;;;;;;4996712;28;20026;-57
2023/10/04 10:00:40;;;;;;;13.98;9.63;;;;;;;;;;4997924;28;20030;-60
2023/10/04 10:03:09;;;;;;;12.88;10.13;;;;;;;;;;5010033;28;20032;-61
2023/10/04 10:05:36;;;;;;;13.88;10.95;;;;;;;;;;5020877;28;20029;-61
2023/10/04 10:08:06;;;;;;;12.45;10.68;;;;;;;;;;5009596;28;20034;-61
2023/10/04 10:10:43;;;;;;;12.25;10.73;;;;;;;;;;5020281;28;20121;-61
2023/10/04 10:13:09;;;;;;;13.10;10.20;;;37.30;99.90;;;;;;5017144;28;20145;-61
2023/10/04 10:15:36;;;;;;;19.25;10.52;;;38.00;99.90;;;;;;5000258;28;20489;-61
2023/10/04 10:18:03;;;;;;;15.68;11.10;;;38.10;99.90;;;;;;5013232;28;20026;-61
2023/10/04 10:20:30;;;;;;;24.63;14.45;;;;;;;;;;5003050;28;20435;-60
2023/10/04 10:22:59;;;;;;;27.13;14.18;;;;;;;;;;5005106;28;20022;-63
2023/10/04 10:25:25;;;;;;;51.47;16.70;;;;;;;;;;5008925;28;20096;-65
2023/10/04 10:27:56;;;;;;;18.23;14.68;;;;;;;;;;4991813;28;20034;-53
2023/10/04 10:30:23;;;;;;;18.17;14.23;;;;;;;;;;4999364;28;20050;-50
2023/10/04 10:32:54;;;;;;;17.63;15.15;;;;;;;;;;4997154;28;20116;-61
2023/10/04 10:35:39;;;;;;;16.88;14.40;;;;;;;;;;4999442;28;20028;-61
2023/10/04 10:38:24;;;;;;;19.10;16.05;;;;;;;;;;5009515;28;20037;-60
2023/10/04 10:40:50;;;;;;;16.95;14.65;;;38.10;99.90;;;;;;5009081;28;20034;-59
2023/10/04 10:43:15;;;;;;;20.58;15.82;;;38.30;99.90;;;;;;4994221;28;20026;-59
2023/10/04 10:45:41;;;;;;;18.35;16.23;;;38.20;99.90;;;;;;5022961;28;20040;-59
2023/10/04 10:48:10;;;;;;;19.45;16.52;;;38.20;99.90;;;;;;5032512;28;20060;-59
2023/10/04 10:50:37;;;;;;;17.88;16.08;;;38.20;99.90;;;;;;5001974;28;20036;-60
2023/10/04 10:53:10;;;;;;;17.88;14.82;;;38.20;99.90;;;;;;4994760;28;20042;-60
2023/10/04 10:55:38;;;;;;;19.75;16.10;;;38.20;99.90;;;;;;5021039;28;20036;-59
2023/10/04 10:58:06;;;;;;;19.33;17.35;;;38.20;99.90;;;;;;5011978;28;20057;-60
2023/10/04 11:00:32;;;;;;;15.43;13.68;;;38.30;99.90;;;;;;5000013;28;20026;-59
2023/10/04 11:02:59;;;;;;;16.20;14.40;;;38.20;99.90;;;;;;4978948;28;20559;-60
2023/10/04 11:05:25;;;;;;;16.40;14.23;;;38.30;99.90;;;;;;5015337;28;20399;-60
2023/10/04 11:07:53;;;;;;;15.60;14.05;;;38.30;99.90;;;;;;5026081;28;20479;-59
2023/10/04 11:10:23;;;;;;;12.45;11.25;;;38.40;99.90;;;;;;5012447;28;20038;-59
2023/10/04 11:12:51;;;;;;;13.38;12.18;;;38.40;99.90;;;;;;4994811;28;20033;-59
2023/10/04 11:15:20;;;;;;;14.50;12.43;;;;;;;;;;5016341;28;20041;-60
2023/10/04 11:17:47;;;;;;;16.45;12.38;;;;;;;;;;5022522;28;20037;-59
2023/10/04 11:20:17;;;;;;;14.57;13.05;;;;;;;;;;5029654;28;20028;-60
2023/10/04 11:22:44;;;;;;;13.75;12.35;;;;;;;;;;5032524;28;20029;-59
2023/10/04 11:25:19;;;;;;;13.55;12.25;;;;;;;;;;5028804;28;20510;-60
2023/10/04 11:27:46;;;;;;;15.63;13.23;;;;;;;;;;5032234;28;20450;-60
2023/10/04 11:30:27;;;;;;;17.10;13.70;;;;;;;;;;5026425;28;20096;-60
2023/10/04 11:32:53;;;;;;;15.13;13.32;;;;;;;;;;5018146;28;20037;-60
2023/10/04 11:35:19;;;;;;;11.88;10.77;;;;;;;;;;5032018;28;20069;-60
2023/10/04 11:37:46;;;;;;;16.05;11.70;;;;;;;;;;5021680;28;20043;-60
2023/10/04 11:40:13;;;;;;;19.05;14.85;;;;;;;;;;5017322;28;20022;-60
2023/10/04 11:42:39;;;;;;;17.90;14.32;;;;;;;;;;5011237;28;20041;-60
2023/10/04 11:45:17;;;;;;;17.17;15.02;;;;;;;;;;5013746;28;20058;-60
2023/10/04 11:47:45;;;;;;;15.73;14.10;;;;;;;;;;5020719;28;20073;-60
2023/10/04 11:50:13;;;;;;;14.80;12.60;;;;;;;;;;5010068;28;20049;-60
2023/10/04 11:52:40;;;;;;;19.73;15.30;;;;;;;;;;5012005;28;20037;-60
2023/10/04 11:55:23;;;;;;;21.05;17.77;;;;;;;;;;4991009;28;20037;-60
2023/10/04 11:57:49;;;;;;;16.08;12.73;;;;;;;;;;5030086;28;20448;-60
2023/10/04 12:00:16;;;;;;;15.13;13.40;;;;;;;;;;5019945;28;20018;-60
2023/10/04 12:02:42;;;;;;;19.25;15.65;;;;;;;;;;5008806;28;20033;-60
2023/10/04 12:05:09;;;;;;;16.08;14.48;;;;;;;;;;5009061;28;20385;-60
2023/10/04 12:07:40;;;;;;;19.33;15.65;;;;;;;;;;5010548;28;20117;-60
2023/10/04 12:10:09;;;;;;;20.88;15.20;;;;;;;;;;5010425;28;20046;-60
2023/10/04 12:12:36;;;;;;;18.65;14.05;;;;;;;;;;4997384;28;20022;-59
2023/10/04 12:15:07;;;;;;;14.02;12.63;;;;;;;;;;5017804;28;20510;-59
2023/10/04 12:17:34;;;;;;;15.73;14.13;;;;;;;;;;5021009;28;20017;-60
2023/10/04 12:20:04;;;;;;;18.75;16.80;;;;;;;;;;4999650;28;20046;-60
2023/10/04 12:22:30;;;;;;;22.38;19.55;;;;;;;;;;5023890;28;20017;-59
2023/10/04 12:24:56;;;;;;;19.05;16.90;;;;;;;;;;5008586;28;20206;-59
2023/10/04 12:27:24;;;;;;;16.55;14.80;;;;;;;;;;5011769;28;20018;-60
2023/10/04 12:29:50;;;;;;;21.52;16.20;;;;;;;;;;5012543;28;20049;-71
2023/10/04 12:32:19;;;;;;;17.77;15.88;;;;;;;;;;5015030;28;20017;-82
2023/10/04 12:34:45;;;;;;;19.70;16.55;;;;;;;;;;5016666;28;20172;-70
2023/10/04 12:37:12;;;;;;;21.30;15.45;;;;;;;;;;5010399;28;20105;-61
2023/10/04 12:39:38;;;;;;;22.63;20.17;;;;;;;;;;5011954;28;20033;-62
2023/10/04 12:42:04;;;;;;;17.75;15.90;;;;;;;;;;5011069;28;20373;-65
2023/10/04 12:44:31;;;;;;;20.75;18.65;;;;;;;;;;5010496;28;20081;-63
2023/10/04 12:46:57;;;;;;;22.92;17.95;;;;;;;;;;5015802;28;20026;-62
2023/10/04 12:49:23;;;;;;;28.38;25.25;;;;;;;;;;5012504;28;20081;-63
2023/10/04 12:51:49;;;;;;;21.60;19.35;;;;;;;;;;5009801;28;20398;-59
2023/10/04 12:54:23;;;;;;;23.17;20.77;;;;;;;;;;5008539;28;20044;-57
2023/10/04 12:56:51;;;;;;;23.27;20.77;;;;;;;;;;5011649;28;20077;-59
2023/10/04 12:59:19;;;;;;;23.02;19.70;;;;;;;;;;5005371;28;20034;-59
2023/10/04 13:01:45;;;;;;;25.40;21.15;;;;;;;;;;5011061;28;20476;-59
2023/10/04 13:04:11;;;;;;;28.20;22.83;;;;;;;;;;5009172;28;20029;-59
2023/10/04 13:06:38;;;;;;;21.65;19.45;;;;;;;;;;5011164;28;20026;-63
2023/10/04 13:09:05;;;;;;;23.90;21.27;;;;;;;;;;5020983;28;20108;-61
2023/10/04 13:11:31;;;;;;;24.45;21.90;;;;;;;;;;5007478;28;20022;-65
2023/10/04 13:13:57;;;;;;;28.83;25.95;;;;;;;;;;5014774;28;20096;-66
2023/10/04 13:16:23;;;;;;;30.23;26.00;;;;;;;;;;5010423;28;20042;-62
2023/10/04 13:18:49;;;;;;;29.58;25.17;;;;;;;;;;5007368;28;20045;-60